createdAt,value
2022-08-11T00:00:35.995Z,98834.69
2022-08-11T00:03:08.219Z,98824.78
2022-08-11T00:05:45.486Z,98831.03
2022-08-11T00:08:22.078Z,98829.72
2022-08-11T00:10:55.367Z,98825.03
2022-08-11T00:13:32.651Z,98827.88
2022-08-11T00:16:00.789Z,98818.78
2022-08-11T00:18:29.007Z,98828.91
2022-08-11T00:21:00.449Z,98829.19
2022-08-11T00:23:28.259Z,98825.25
2022-08-11T00:25:57.130Z,98822.41
2022-08-11T00:28:27.723Z,98825.25
2022-08-11T00:30:56.501Z,98830.44
2022-08-11T00:33:44.814Z,98829.41
2022-08-11T00:36:15.909Z,98824.44
2022-08-11T00:38:45.563Z,98827.06
2022-08-11T00:41:28.485Z,98835.13
2022-08-11T00:44:22.686Z,98834.84
2022-08-11T00:46:59.044Z,98842.13
2022-08-11T00:49:38.458Z,98836.63
2022-08-11T00:52:28.614Z,98839.47
2022-08-11T00:55:34.542Z,98834.25
2022-08-11T00:58:48.339Z,98834.00
2022-08-11T01:01:30.376Z,98833.72
2022-08-11T01:04:17.917Z,98831.91
2022-08-11T01:08:00.469Z,98828.25
2022-08-11T01:10:37.992Z,98825.16
2022-08-11T01:13:14.927Z,98825.41
2022-08-11T01:16:27.653Z,98830.59
2022-08-11T01:20:45.416Z,98830.06
2022-08-11T01:23:15.841Z,98819.88
2022-08-11T01:26:51.169Z,98821.66
2022-08-11T01:29:55.874Z,98818.00
2022-08-11T01:32:57.207Z,98808.84
2022-08-11T01:36:05.990Z,98815.84
2022-08-11T01:39:02.821Z,98808.31
2022-08-11T01:42:10.137Z,98803.59
2022-08-11T01:45:06.359Z,98807.78
2022-08-11T01:47:54.348Z,98809.06
2022-08-11T01:50:32.099Z,98803.34
2022-08-11T01:53:12.861Z,98799.44
2022-08-11T01:55:47.875Z,98806.44
2022-08-11T01:58:19.941Z,98807.19
2022-08-11T02:01:13.737Z,98802.75
2022-08-11T02:03:46.483Z,98797.78
2022-08-11T02:06:39.094Z,98792.59
2022-08-11T02:09:13.983Z,98796.72
2022-08-11T02:11:47.544Z,98793.63
2022-08-11T02:14:24.862Z,98796.72
2022-08-11T02:17:04.488Z,98792.81
2022-08-11T02:20:01.509Z,98797.47
2022-08-11T02:22:54.493Z,98795.91
2022-08-11T02:25:30.682Z,98795.91
2022-08-11T02:28:04.824Z,98800.06
2022-08-11T02:30:38.501Z,98800.31
2022-08-11T02:33:24.291Z,98803.97
2022-08-11T02:36:03.519Z,98802.13
2022-08-11T02:38:35.737Z,98804.47
2022-08-11T02:41:30.440Z,98800.78
2022-08-11T02:44:13.449Z,98805.47
2022-08-11T02:46:56.684Z,98801.28
2022-08-11T02:50:06.366Z,98809.84
2022-08-11T02:52:46.801Z,98789.56
2022-08-11T02:55:47.964Z,98803.81
2022-08-11T02:58:15.827Z,98799.41
2022-08-11T03:00:49.917Z,98805.84
2022-08-11T03:03:24.074Z,98802.16
2022-08-11T03:06:08.903Z,98803.16
2022-08-11T03:08:53.551Z,98809.88
2022-08-11T03:11:51.782Z,98810.91
2022-08-11T03:14:47.610Z,98811.44
2022-08-11T03:17:20.631Z,98803.94
2022-08-11T03:19:57.563Z,98803.56
2022-08-11T03:22:30.491Z,98810.78
2022-08-11T03:25:02.873Z,98811.31
2022-08-11T03:27:41.887Z,98808.97
2022-08-11T03:30:15.772Z,98804.03
2022-08-11T03:33:13.522Z,98809.22
2022-08-11T03:35:50.219Z,98817.50
2022-08-11T03:38:30.464Z,98811.00
2022-08-11T03:42:04.154Z,98802.91
2022-08-11T03:44:29.905Z,98806.53
2022-08-11T03:47:09.282Z,98806.84
2022-08-11T03:49:53.909Z,98807.84
2022-08-11T03:52:28.789Z,98802.94
2022-08-11T03:55:04.539Z,98800.88
2022-08-11T03:58:05.752Z,98811.09
2022-08-11T04:01:06.176Z,98809.06
2022-08-11T04:04:10.902Z,98817.91
2022-08-11T04:06:54.640Z,98819.78
2022-08-11T04:09:53.167Z,98819.63
2022-08-11T04:12:57.296Z,98819.72
2022-08-11T04:16:11.886Z,98821.06
2022-08-11T04:19:21.711Z,98807.63
2022-08-11T04:22:21.415Z,98814.50
2022-08-11T04:25:08.360Z,98827.84
2022-08-11T04:28:29.075Z,98806.00
2022-08-11T04:31:10.913Z,98814.44
2022-08-11T04:34:08.039Z,98802.81
2022-08-11T04:37:37.433Z,98806.22
2022-08-11T04:40:44.322Z,98811.97
2022-08-11T04:44:05.718Z,98803.94
2022-08-11T04:47:07.913Z,98813.31
2022-08-11T04:50:14.236Z,98817.50
2022-08-11T04:53:28.785Z,98816.50
2022-08-11T04:56:33.122Z,98820.06
2022-08-11T04:59:38.676Z,98816.88
2022-08-11T05:02:38.404Z,98809.34
2022-08-11T05:05:32.816Z,98816.44
2022-08-11T05:08:40.870Z,98821.34
2022-08-11T05:11:30.851Z,98813.72
2022-08-11T05:14:43.000Z,98814.41
2022-08-11T05:17:33.507Z,98814.50
2022-08-11T05:20:19.445Z,98813.03
2022-08-11T05:23:10.129Z,98823.22
2022-08-11T05:26:44.013Z,98808.53
2022-08-11T05:29:19.759Z,98806.09
2022-08-11T05:32:15.070Z,98803.03
2022-08-11T05:34:52.026Z,98806.59
2022-08-11T05:37:27.135Z,98810.97
2022-08-11T05:40:24.481Z,98806.94
2022-08-11T05:43:14.699Z,98811.53
2022-08-11T05:46:04.690Z,98799.91
2022-08-11T05:48:53.925Z,98803.56
2022-08-11T05:51:51.914Z,98798.66
2022-08-11T05:54:45.938Z,98796.63
2022-08-11T05:57:50.081Z,98791.94
2022-08-11T06:00:12.366Z,98784.19
2022-08-11T06:02:43.728Z,98790.19
2022-08-11T06:05:12.564Z,98784.72
2022-08-11T06:07:49.194Z,98794.41
2022-08-11T06:10:29.904Z,98788.72
2022-08-11T06:13:01.313Z,98784.88
2022-08-11T06:15:30.350Z,98783.38
2022-08-11T06:18:01.414Z,98787.97
2022-08-11T06:20:36.684Z,98778.31
2022-08-11T06:23:06.861Z,98786.88
2022-08-11T06:25:36.026Z,98766.78
2022-08-11T06:28:07.358Z,98773.81
2022-08-11T06:30:42.166Z,98780.78
2022-08-11T06:33:11.690Z,98775.09
2022-08-11T06:35:48.679Z,98779.31
2022-08-11T06:38:28.372Z,98774.16
2022-08-11T06:41:19.977Z,98769.53
2022-08-11T06:43:55.759Z,98779.66
2022-08-11T06:46:30.099Z,98771.75
2022-08-11T06:48:58.107Z,98772.38
2022-08-11T06:51:25.591Z,98775.94
2022-08-11T06:54:04.776Z,98770.63
2022-08-11T06:57:12.554Z,98774.03
2022-08-11T07:00:02.432Z,98775.28
2022-08-11T07:02:34.096Z,98774.47
2022-08-11T07:05:08.349Z,98776.56
2022-08-11T07:15:01.697Z,98772.06
2022-08-11T07:16:10.763Z,98775.03
2022-08-11T07:18:41.376Z,98769.09
2022-08-11T07:22:01.365Z,98772.56
2022-08-11T07:25:01.771Z,98769.44
2022-08-11T07:27:55.635Z,98769.59
2022-08-11T07:30:25.806Z,98760.88
2022-08-11T07:32:54.946Z,98770.22
2022-08-11T07:35:28.044Z,98763.25
2022-08-11T07:38:01.704Z,98767.09
2022-08-11T07:40:30.849Z,98765.94
2022-08-11T07:43:00.841Z,98762.66
2022-08-11T07:45:53.423Z,98767.78
2022-08-11T07:48:39.746Z,98770.44
2022-08-11T07:51:25.762Z,98769.22
2022-08-11T07:53:58.634Z,98754.19
2022-08-11T07:56:54.244Z,98758.22
2022-08-11T08:00:00.446Z,98763.50
2022-08-11T08:02:49.929Z,98755.31
2022-08-11T08:05:37.777Z,98749.81
2022-08-11T08:08:26.227Z,98744.31
2022-08-11T08:11:13.894Z,98748.16
2022-08-11T08:14:00.463Z,98747.31
2022-08-11T08:16:48.955Z,98750.13
2022-08-11T08:19:20.781Z,98747.66
2022-08-11T08:21:49.375Z,98737.84
2022-08-11T08:24:20.172Z,98733.59
2022-08-11T08:27:01.167Z,98740.38
2022-08-11T08:29:50.031Z,98735.84
2022-08-11T08:32:18.838Z,98731.94
2022-08-11T08:34:50.607Z,98727.94
2022-08-11T08:37:46.420Z,98734.00
2022-08-11T08:40:09.603Z,98735.97
2022-08-11T08:42:45.223Z,98731.78
2022-08-11T08:45:16.472Z,98723.81
2022-08-11T08:47:52.561Z,98725.09
2022-08-11T08:50:47.149Z,98725.19
2022-08-11T08:53:15.871Z,98726.75
2022-08-11T08:55:46.344Z,98721.94
2022-08-11T08:58:14.770Z,98725.78
2022-08-11T09:00:45.631Z,98725.28
2022-08-11T09:03:38.892Z,98720.69
2022-08-11T09:08:49.646Z,98716.53
2022-08-11T09:11:42.623Z,98712.72
2022-08-11T09:14:14.951Z,98720.03
2022-08-11T09:16:44.406Z,98708.59
2022-08-11T09:19:17.628Z,98704.34
2022-08-11T09:22:12.821Z,98699.69
2022-08-11T09:24:58.386Z,98699.22
2022-08-11T09:27:26.670Z,98696.25
2022-08-11T09:29:54.883Z,98694.97
2022-08-11T09:32:22.957Z,98702.59
2022-08-11T09:34:52.430Z,98694.97
2022-08-11T09:37:55.582Z,98695.69
2022-08-11T09:40:31.466Z,98692.50
2022-08-11T09:43:21.790Z,98693.91
2022-08-11T09:45:52.144Z,98688.50
2022-08-11T09:48:21.064Z,98687.75
2022-08-11T09:50:50.655Z,98678.75
2022-08-11T09:53:36.306Z,98680.34
2022-08-11T09:56:30.381Z,98674.34
2022-08-11T09:58:59.130Z,98670.97
2022-08-11T10:01:30.410Z,98675.03
2022-08-11T10:04:01.665Z,98679.03
2022-08-11T10:06:54.158Z,98666.50
2022-08-11T10:09:25.615Z,98671.50
2022-08-11T10:11:58.535Z,98670.69
2022-08-11T10:14:47.149Z,98669.41
2022-08-11T10:17:16.833Z,98661.34
2022-08-11T10:19:48.849Z,98662.91
2022-08-11T10:22:53.081Z,98665.47
2022-08-11T10:25:58.317Z,98660.69
2022-08-11T10:28:33.442Z,98659.94
2022-08-11T10:31:23.909Z,98660.72
2022-08-11T10:34:06.103Z,98655.06
2022-08-11T10:36:48.334Z,98664.59
2022-08-11T10:39:20.422Z,98661.25
2022-08-11T10:42:12.207Z,98653.22
2022-08-11T10:44:48.220Z,98647.06
2022-08-11T10:47:34.861Z,98661.09
2022-08-11T10:50:22.403Z,98658.34
2022-08-11T10:53:10.087Z,98654.09
2022-08-11T10:55:58.761Z,98650.78
2022-08-11T10:58:46.944Z,98656.53
2022-08-11T11:01:15.896Z,98650.47
2022-08-11T11:03:43.919Z,98652.88
2022-08-11T11:06:29.298Z,98653.41
2022-08-11T11:09:04.591Z,98648.28
2022-08-11T11:11:58.915Z,98640.38
2022-08-11T11:14:53.720Z,98640.97
2022-08-11T11:17:47.846Z,98643.53
2022-08-11T11:20:36.300Z,98639.97
2022-08-11T11:23:16.938Z,98635.22
2022-08-11T11:26:13.332Z,98642.97
2022-08-11T11:29:16.518Z,98637.75
2022-08-11T11:31:56.270Z,98630.31
2022-08-11T11:35:00.023Z,98634.75
2022-08-11T11:37:32.366Z,98627.56
2022-08-11T11:40:01.517Z,98627.69
2022-08-11T11:42:30.045Z,98634.41
2022-08-11T11:45:01.165Z,98642.81
2022-08-11T11:47:31.111Z,98631.28
2022-08-11T11:49:59.213Z,98627.22
2022-08-11T11:52:27.541Z,98625.59
2022-08-11T11:54:57.028Z,98629.47
2022-08-11T11:57:58.403Z,98631.59
2022-08-11T12:00:44.848Z,98631.44
2022-08-11T12:03:13.662Z,98627.47
2022-08-11T12:05:43.279Z,98626.34
2022-08-11T12:08:16.415Z,98627.19
2022-08-11T12:10:46.902Z,98635.25
2022-08-11T12:13:33.905Z,98624.28
2022-08-11T12:16:34.592Z,98623.84
2022-08-11T12:18:55.242Z,98630.06
2022-08-11T12:21:24.338Z,98634.22
2022-08-11T12:27:31.413Z,98633.25
2022-08-11T12:30:02.162Z,98631.75
2022-08-11T12:32:31.292Z,98639.91
2022-08-11T12:35:00.346Z,98631.34
2022-08-11T12:37:31.997Z,98634.81
2022-08-11T12:40:42.783Z,98633.72
2022-08-11T12:43:37.188Z,98636.81
2022-08-11T12:46:09.881Z,98631.06
2022-08-11T12:49:03.521Z,98628.66
2022-08-11T12:52:08.523Z,98633.31
2022-08-11T12:54:52.407Z,98636.50
2022-08-11T12:57:45.766Z,98640.69
2022-08-11T13:00:32.973Z,98634.16
2022-08-11T13:03:19.750Z,98629.94
2022-08-11T13:05:49.741Z,98635.66
2022-08-11T13:08:20.229Z,98634.09
2022-08-11T13:11:09.496Z,98630.44
2022-08-11T13:13:53.539Z,98629.97
2022-08-11T13:16:27.129Z,98636.94
2022-08-11T13:18:55.539Z,98625.47
2022-08-11T13:21:23.503Z,98623.28
2022-08-11T13:24:01.691Z,98617.91
2022-08-11T13:26:46.676Z,98620.88
2022-08-11T13:29:19.836Z,98620.75
2022-08-11T13:31:47.762Z,98627.81
2022-08-11T13:34:16.598Z,98626.28
2022-08-11T13:36:44.658Z,98626.81
2022-08-11T13:39:14.043Z,98623.34
2022-08-11T13:41:45.195Z,98630.81
2022-08-11T13:44:18.192Z,98625.91
2022-08-11T13:46:48.765Z,98615.97
2022-08-11T13:49:22.132Z,98622.25
2022-08-11T13:51:50.188Z,98625.22
2022-08-11T13:54:21.525Z,98620.03
2022-08-11T13:56:52.867Z,98621.16
2022-08-11T13:59:24.162Z,98622.16
2022-08-11T14:02:22.251Z,98615.53
2022-08-11T14:04:56.088Z,98619.81
2022-08-11T14:07:34.786Z,98627.22
2022-08-11T14:10:06.163Z,98628.44
2022-08-11T14:12:54.266Z,98624.47
2022-08-11T14:15:25.277Z,98616.97
2022-08-11T14:17:56.562Z,98611.34
2022-08-11T14:20:38.712Z,98617.84
2022-08-11T14:23:11.003Z,98623.59
2022-08-11T14:26:02.434Z,98615.97
2022-08-11T14:28:37.500Z,98618.50
2022-08-11T14:31:09.707Z,98611.56
2022-08-11T14:34:00.884Z,98624.00
2022-08-11T14:36:27.089Z,98619.81
2022-08-11T14:38:55.218Z,98619.16
2022-08-11T14:42:11.562Z,98619.25
2022-08-11T14:44:50.800Z,98622.50
2022-08-11T14:47:24.516Z,98624.00
2022-08-11T14:50:10.458Z,98622.56
2022-08-11T14:52:44.262Z,98617.47
2022-08-11T14:55:31.509Z,98620.63
2022-08-11T14:58:01.773Z,98619.69
2022-08-11T15:00:29.877Z,98609.09
2022-08-11T15:03:11.033Z,98601.81
2022-08-11T15:05:41.767Z,98599.31
2022-08-11T15:08:46.043Z,98591.56
2022-08-11T15:11:34.098Z,98593.66
2022-08-11T15:14:05.042Z,98595.44
2022-08-11T15:16:51.545Z,98596.03
2022-08-11T15:19:23.443Z,98592.34
2022-08-11T15:22:09.620Z,98584.97
2022-08-11T15:24:37.567Z,98589.69
2022-08-11T15:27:27.449Z,98587.41
2022-08-11T15:30:18.273Z,98579.13
2022-08-11T15:33:21.675Z,98586.50
2022-08-11T15:36:08.903Z,98587.59
2022-08-11T15:38:42.567Z,98581.88
2022-08-11T15:41:30.619Z,98585.19
2022-08-11T15:44:17.243Z,98575.03
2022-08-11T15:46:49.337Z,98586.69
2022-08-11T15:49:23.665Z,98586.25
2022-08-11T15:52:00.414Z,98592.84
2022-08-11T15:54:32.702Z,98586.25
2022-08-11T15:57:02.369Z,98581.16
2022-08-11T15:59:50.680Z,98586.84
2022-08-11T16:02:28.310Z,98584.03
2022-08-11T16:04:58.438Z,98572.53
2022-08-11T16:07:29.660Z,98573.25
2022-08-11T16:10:01.847Z,98575.53
2022-08-11T16:12:32.938Z,98573.41
2022-08-11T16:15:20.936Z,98573.13
2022-08-11T16:17:52.552Z,98571.13
2022-08-11T16:20:22.598Z,98573.53
2022-08-11T16:23:00.373Z,98570.16
2022-08-11T16:27:03.505Z,98572.38
2022-08-11T16:28:21.747Z,98571.19
2022-08-11T16:30:50.122Z,98579.31
2022-08-11T16:33:48.565Z,98579.16
2022-08-11T16:36:27.259Z,98584.94
2022-08-11T16:38:55.945Z,98580.47
2022-08-11T16:41:48.965Z,98577.09
2022-08-11T16:44:38.383Z,98579.00
2022-08-11T16:47:08.575Z,98578.28
2022-08-11T16:49:43.056Z,98578.63
2022-08-11T16:52:15.163Z,98586.72
2022-08-11T16:54:44.443Z,98581.94
2022-08-11T16:57:34.722Z,98586.16
2022-08-11T17:00:06.284Z,98592.69
2022-08-11T17:02:56.004Z,98587.09
2022-08-11T17:05:53.774Z,98598.13
2022-08-11T17:08:55.902Z,98598.63
2022-08-11T17:11:46.443Z,98598.00
2022-08-11T17:14:18.114Z,98591.66
2022-08-11T17:17:06.099Z,98593.81
2022-08-11T17:20:39.581Z,98592.28
2022-08-11T17:22:48.256Z,98603.91
2022-08-11T17:25:17.213Z,98597.41
2022-08-11T17:27:47.426Z,98598.94
2022-08-11T17:30:14.958Z,98602.06
2022-08-11T17:33:03.807Z,98597.84
2022-08-11T17:35:34.943Z,98612.41
2022-08-11T17:38:08.496Z,98606.94
2022-08-11T17:40:39.570Z,98610.47
2022-08-11T17:43:27.582Z,98611.34
2022-08-11T17:46:05.118Z,98608.97
2022-08-11T17:48:47.328Z,98608.50
2022-08-11T17:51:38.105Z,98611.66
2022-08-11T17:54:27.957Z,98625.06
2022-08-11T17:57:21.265Z,98624.38
2022-08-11T17:59:55.276Z,98629.41
2022-08-11T18:02:45.245Z,98630.44
2022-08-11T18:05:13.951Z,98630.66
2022-08-11T18:08:01.905Z,98634.81
2022-08-11T18:10:50.903Z,98636.72
2022-08-11T18:13:39.601Z,98632.47
2022-08-11T18:16:26.192Z,98646.44
2022-08-11T18:19:12.222Z,98641.88
2022-08-11T18:22:13.068Z,98646.28
2022-08-11T18:25:06.191Z,98646.81
2022-08-11T18:27:56.915Z,98647.19
2022-08-11T18:30:43.885Z,98652.03
2022-08-11T18:33:56.882Z,98657.41
2022-08-11T18:36:42.564Z,98662.34
2022-08-11T18:39:30.658Z,98658.66
2022-08-11T18:42:28.825Z,98663.63
2022-08-11T18:45:22.448Z,98664.38
2022-08-11T18:48:11.508Z,98666.59
2022-08-11T18:51:29.974Z,98669.06
2022-08-11T18:54:10.594Z,98661.44
2022-08-11T18:56:56.624Z,98666.88
2022-08-11T18:59:46.035Z,98669.06
2022-08-11T19:02:48.300Z,98674.97
2022-08-11T19:06:05.898Z,98680.44
2022-08-11T19:08:48.888Z,98680.34
2022-08-11T19:11:40.341Z,98679.63
2022-08-11T19:14:30.688Z,98671.44
2022-08-11T19:17:44.337Z,98679.97
2022-08-11T19:20:28.279Z,98681.94
2022-08-11T19:23:15.783Z,98687.81
2022-08-11T19:26:02.331Z,98693.38
2022-08-11T19:28:49.410Z,98699.22
2022-08-11T19:31:37.959Z,98692.97
2022-08-11T19:34:28.125Z,98700.31
2022-08-11T19:37:15.041Z,98691.97
2022-08-11T19:40:01.745Z,98703.50
2022-08-11T19:42:48.021Z,98693.63
2022-08-11T19:45:34.513Z,98693.69
2022-08-11T19:48:31.628Z,98697.19
2022-08-11T19:51:19.264Z,98700.13
2022-08-11T19:54:07.308Z,98705.91
2022-08-11T19:56:55.214Z,98701.00
2022-08-11T19:59:41.909Z,98698.47
2022-08-11T20:02:28.708Z,98705.59
2022-08-11T20:05:14.754Z,98705.13
2022-08-11T20:08:01.599Z,98705.19
2022-08-11T20:10:52.001Z,98707.00
2022-08-11T20:13:41.643Z,98711.47
2022-08-11T20:16:31.184Z,98698.94
2022-08-11T20:19:18.343Z,98696.34
2022-08-11T20:22:08.442Z,98700.56
2022-08-11T20:24:56.787Z,98703.25
2022-08-11T20:27:44.435Z,98700.63
2022-08-11T20:30:31.610Z,98701.72
2022-08-11T20:33:17.610Z,98716.09
2022-08-11T20:36:07.914Z,98716.91
2022-08-11T20:38:55.623Z,98707.81
2022-08-11T20:41:49.165Z,98719.59
2022-08-11T20:44:48.176Z,98715.16
2022-08-11T20:47:56.146Z,98714.97
2022-08-11T20:50:45.565Z,98719.75
2022-08-11T20:53:35.604Z,98728.91
2022-08-11T20:56:28.785Z,98725.78
2022-08-11T20:59:18.331Z,98722.91
2022-08-11T21:02:09.871Z,98721.34
2022-08-11T21:04:57.776Z,98740.16
2022-08-11T21:07:56.798Z,98739.13
2022-08-11T21:10:51.427Z,98739.16
2022-08-11T21:13:41.468Z,98742.31
2022-08-11T21:16:30.366Z,98750.41
2022-08-11T21:20:01.377Z,98751.44
2022-08-11T21:22:59.680Z,98741.03
2022-08-11T21:25:59.462Z,98748.09
2022-08-11T21:28:46.158Z,98755.44
2022-08-11T21:31:33.461Z,98752.81
2022-08-11T21:34:21.853Z,98754.91
2022-08-11T21:37:09.019Z,98755.97
2022-08-11T21:39:55.481Z,98770.84
2022-08-11T21:42:42.531Z,98770.03
2022-08-11T21:45:31.608Z,98772.66
2022-08-11T21:48:19.656Z,98770.03
2022-08-11T21:51:06.608Z,98777.34
2022-08-11T21:53:53.153Z,98772.38
2022-08-11T21:56:40.786Z,98778.16
2022-08-11T21:59:27.226Z,98779.69
2022-08-11T22:02:13.293Z,98778.91
2022-08-11T22:04:59.889Z,98766.66
2022-08-11T22:07:47.176Z,98774.22
2022-08-11T22:10:41.389Z,98781.00
2022-08-11T22:13:30.398Z,98771.31
2022-08-11T22:16:17.408Z,98770.28
2022-08-11T22:19:04.643Z,98770.78
2022-08-11T22:22:02.648Z,98776.25
2022-08-11T22:24:53.284Z,98770.72
2022-08-11T22:27:39.880Z,98767.88
2022-08-11T22:30:27.589Z,98770.19
2022-08-11T22:33:17.021Z,98769.69
2022-08-11T22:36:04.197Z,98770.44
2022-08-11T22:38:51.679Z,98756.09
2022-08-11T22:41:39.709Z,98761.03
2022-08-11T22:44:25.909Z,98766.75
2022-08-11T22:47:13.862Z,98757.88
2022-08-11T22:50:05.435Z,98763.06
2022-08-11T22:52:52.617Z,98767.72
2022-08-11T22:55:39.108Z,98763.06
2022-08-11T22:58:26.753Z,98764.31
2022-08-11T23:01:12.731Z,98762.50
2022-08-11T23:03:58.927Z,98760.13
2022-08-11T23:06:45.545Z,98763.72
2022-08-11T23:09:31.978Z,98765.53
2022-08-11T23:12:18.017Z,98757.72
2022-08-11T23:15:05.154Z,98763.31
2022-08-11T23:17:51.070Z,98764.63
2022-08-11T23:20:50.027Z,98763.31
2022-08-11T23:23:43.881Z,98758.66
2022-08-11T23:26:30.402Z,98758.13
2022-08-11T23:29:17.398Z,98751.06
2022-08-11T23:32:05.333Z,98755.50
2022-08-11T23:35:03.568Z,98764.81
2022-08-11T23:37:51.578Z,98756.50
2022-08-11T23:40:37.473Z,98750.75
2022-08-11T23:43:23.370Z,98748.66
2022-08-11T23:46:09.334Z,98755.63
2022-08-11T23:48:58.005Z,98753.03
2022-08-11T23:51:45.899Z,98748.31
2022-08-11T23:54:36.947Z,98746.75
2022-08-11T23:57:24.142Z,98750.38
